Time;durP1;ratioP1;P1;durP2;ratioP2;P2;SDS_P1;SDS_P2;PMS_P1;PMS_P2;Temp;Humidity;BMP_temperature;BMP_pressure;BME280_temperature;BME280_humidity;BME280_pressure;Samples;Min_cycle;Max_cycle;Signal;HPM_P1;HPM_P2
2022/06/21 00:01:17;;;;;;;6.32;3.20;;;;;;;17.37;55.86;98671.41;5012069;28;20132;-58
2022/06/21 00:03:44;;;;;;;8.50;3.10;;;;;;;17.35;56.05;98679.69;5012008;28;20057;-60
2022/06/21 00:06:12;;;;;;;7.18;2.85;;;;;;;17.22;56.34;98657.97;5011481;28;20061;-60
2022/06/21 00:08:39;;;;;;;5.88;3.33;;;;;;;17.39;56.43;98679.31;5030216;28;20041;-60
2022/06/21 00:11:17;;;;;;;9.05;3.60;;;;;;;17.46;56.05;98669.38;5030401;28;20033;-58
2022/06/21 00:13:43;;;;;;;8.95;3.00;;;;;;;17.35;55.99;98662.63;5031154;28;20025;-60
2022/06/21 00:16:29;;;;;;;7.03;3.45;;;;;;;17.47;55.78;98674.56;5031760;28;20030;-60
2022/06/21 00:18:55;;;;;;;4.20;3.17;;;;;;;17.36;55.66;98662.47;5017853;28;20454;-60
2022/06/21 00:21:23;;;;;;;7.28;2.88;;;;;;;17.41;55.94;98669.13;5031227;28;20091;-59
2022/06/21 00:23:51;;;;;;;6.35;3.30;;;;;;;17.42;55.93;98673.53;5031184;28;20046;-58
2022/06/21 00:26:20;;;;;;;4.25;2.80;;;;;;;17.32;55.55;98657.63;5031555;28;20504;-59
2022/06/21 00:29:41;;;;;;;8.35;3.20;;;;;;;17.45;56.12;98656.88;5030560;28;20386;-62
2022/06/21 00:32:12;;;;;;;8.57;2.88;;;;;;;17.35;55.72;98649.94;5031137;28;20445;-59
2022/06/21 00:34:38;;;;;;;4.57;2.70;;;;;;;17.31;55.84;98653.25;5031016;28;20119;-60
2022/06/21 00:37:03;;;;;;;5.03;2.90;;;;;;;17.29;55.92;98653.44;5030983;28;20504;-57
2022/06/21 00:39:29;;;;;;;5.30;3.30;;;;;;;17.30;55.85;98657.81;5030833;28;20040;-58
2022/06/21 00:42:00;;;;;;;6.55;2.90;;;;;;;17.33;56.22;98657.41;5030892;28;20034;-65
2022/06/21 00:44:52;;;;;;;5.05;3.28;;;;;;;17.45;55.88;98657.72;5031531;28;20025;-61
2022/06/21 00:47:30;;;;;;;5.43;2.70;;;;;;;17.43;56.11;98656.25;5045574;28;20037;-59
2022/06/21 00:49:59;;;;;;;4.82;2.88;;;;;;;17.25;54.09;98627.81;5029551;28;20396;-64
2022/06/21 00:52:38;;;;;;;9.20;3.00;;;;;;;17.47;53.32;98661.06;5031260;28;20100;-60
2022/06/21 00:55:11;;;;;;;5.07;2.95;;;;;;;17.44;53.31;98656.03;5031264;28;20045;-57
2022/06/21 00:57:53;;;;;;;4.28;2.90;;;;;;;17.35;54.96;98631.00;5030696;28;20058;-57
2022/06/21 01:00:30;;;;;;;6.13;3.00;;;;;;;17.48;55.17;98662.75;5030723;28;20057;-56
2022/06/21 01:02:59;;;;;;;6.57;2.85;;;;;;;17.44;55.08;98669.56;5029826;28;20041;-64
2022/06/21 01:05:28;;;;;;;5.18;2.85;;;;;;;17.44;55.61;98666.03;5031158;28;20029;-57
2022/06/21 01:07:57;;;;;;;5.25;2.90;;;;;;;17.43;55.70;98670.59;5030657;28;20140;-60
2022/06/21 01:10:23;;;;;;;7.72;2.90;;;;;;;17.40;55.05;98668.28;5031017;28;20040;-60
2022/06/21 01:12:56;;;;;;;7.13;2.75;;;;;;;17.46;54.15;98675.59;5030609;28;20393;-58
2022/06/21 01:15:30;;;;;;;6.07;3.30;;;;;;;17.44;54.79;98669.56;5031119;28;20033;-59
2022/06/21 01:18:00;;;;;;;5.35;2.40;;;;;;;17.44;55.15;98663.34;5030762;28;20040;-58
2022/06/21 01:20:29;;;;;;;6.88;2.92;;;;;;;17.43;54.50;98656.25;5030511;28;20040;-59
2022/06/21 01:23:03;;;;;;;5.68;2.97;;;;;;;17.30;53.48;98616.41;5030954;28;20087;-59
2022/06/21 01:25:50;;;;;;;4.07;2.60;;;;;;;17.52;54.02;98632.59;5030685;28;20057;-59
2022/06/21 01:28:17;;;;;;;5.65;2.92;;;;;;;17.50;52.31;98613.81;5030214;28;20018;-60
2022/06/21 01:30:45;;;;;;;4.93;2.90;;;;;;;17.59;52.08;98620.75;5031628;28;20048;-57
2022/06/21 01:33:17;;;;;;;7.75;3.25;;;;;;;17.67;52.32;98602.69;5034572;28;20034;-58
2022/06/21 01:35:48;;;;;;;8.23;2.85;;;;;;;17.69;52.17;98592.50;5033176;28;20029;-60
2022/06/21 01:38:20;;;;;;;7.20;2.90;;;;;;;17.67;52.05;98584.56;5049447;28;20029;-57
2022/06/21 01:40:50;;;;;;;7.20;3.30;;;;;;;17.76;51.09;98579.81;5034250;28;20022;-59
2022/06/21 01:43:22;;;;;;;6.65;2.85;;;;;;;17.74;51.28;98579.19;5033940;28;20045;-60
2022/06/21 01:46:05;;;;;;;4.75;3.30;;;;;;;17.85;50.68;98567.78;5033903;28;20030;-58
2022/06/21 01:48:38;;;;;;;12.43;4.47;;;;;;;17.76;51.20;98569.84;5032517;28;20037;-58
2022/06/21 01:51:08;;;;;;;7.13;3.40;;;;;;;17.61;52.00;98575.41;5034445;28;20030;-57
2022/06/21 01:53:35;;;;;;;7.65;3.10;;;;;;;17.53;52.71;98570.13;5033580;28;20048;-60
2022/06/21 01:56:08;;;;;;;5.22;3.15;;;;;;;17.64;51.87;98575.00;5033840;28;20042;-59
2022/06/21 01:58:41;;;;;;;8.05;3.47;;;;;;;17.72;50.36;98575.84;5033823;28;20127;-60
2022/06/21 02:01:31;;;;;;;4.40;3.00;;;;;;;17.75;50.59;98584.41;5033590;28;20099;-58
2022/06/21 02:04:01;;;;;;;8.60;3.10;;;;;;;17.74;49.71;98579.19;5034325;28;20045;-57
2022/06/21 02:06:35;;;;;;;6.32;2.53;;;;;;;17.76;49.30;98569.00;5034328;28;20105;-58
2022/06/21 02:09:07;;;;;;;6.10;2.65;;;;;;;17.78;48.86;98578.59;5033324;28;20217;-64
2022/06/21 02:11:45;;;;;;;9.50;2.42;;;;;;;17.76;49.09;98583.38;5034092;28;20060;-57
2022/06/21 02:14:28;;;;;;;3.30;2.35;;;;;;;17.67;49.62;98591.88;5033978;28;20029;-60
2022/06/21 02:17:15;;;;;;;8.05;3.03;;;;;;;17.67;49.64;98586.44;5033397;28;20124;-57
2022/06/21 02:19:48;;;;;;;7.13;3.38;;;;;;;17.70;49.92;98597.69;5032026;28;20108;-60
2022/06/21 02:22:20;;;;;;;5.25;4.45;;;;;;;17.69;50.29;98601.44;5033752;28;20096;-58
2022/06/21 02:24:46;;;;;;;7.22;3.22;;;;;;;17.63;50.81;98597.69;5033468;28;20445;-59
2022/06/21 02:27:16;;;;;;;6.35;2.75;;;;;;;17.72;50.49;98605.63;5031964;28;20128;-60
2022/06/21 02:29:46;;;;;;;5.75;2.70;;;;;;;17.72;51.13;98602.91;5033381;28;20172;-59
2022/06/21 02:32:39;;;;;;;8.27;3.55;;;;;;;17.85;51.53;98603.00;5032983;28;20061;-59
2022/06/21 02:35:20;;;;;;;9.10;3.42;;;;;;;17.80;52.55;98602.75;5030132;28;20394;-59
2022/06/21 02:37:48;;;;;;;6.47;3.45;;;;;;;17.76;52.37;98606.88;5032984;28;20049;-61
2022/06/21 02:40:33;;;;;;;5.97;3.08;;;;;;;17.85;51.57;98611.13;5033671;28;20048;-59
2022/06/21 02:43:04;;;;;;;4.80;3.00;;;;;;;17.72;53.92;98611.84;5032289;28;20370;-59
2022/06/21 02:45:53;;;;;;;5.15;3.05;;;;;;;17.79;56.98;98614.59;5033560;28;20045;-58
2022/06/21 02:48:34;;;;;;;6.07;3.63;;;;;;;17.72;57.15;98628.09;5033382;28;20025;-58
2022/06/21 02:51:08;;;;;;;6.38;3.47;;;;;;;17.64;59.75;98625.56;5033539;28;20048;-56
2022/06/21 02:54:01;;;;;;;7.97;3.60;;;;;;;17.62;59.96;98625.78;5032902;28;20487;-56
2022/06/21 02:56:36;;;;;;;6.40;3.58;;;;;;;17.60;59.68;98627.84;5032762;28;20034;-60
2022/06/21 02:59:02;;;;;;;8.55;3.45;;;;;;;17.49;61.20;98621.13;5033045;28;20143;-58
2022/06/21 03:01:32;;;;;;;5.97;3.38;;;;;;;17.44;62.03;98618.16;5032966;28;20041;-58
2022/06/21 03:03:59;;;;;;;4.53;3.03;;;;;;;17.39;62.85;98623.34;5032613;28;20032;-57
2022/06/21 03:06:28;;;;;;;5.90;3.90;;;;;;;17.39;62.23;98612.50;5032781;28;20060;-57
2022/06/21 03:09:12;;;;;;;6.18;3.35;;;;;;;17.45;63.10;98611.72;5032783;28;20045;-58
2022/06/21 03:11:41;;;;;;;7.05;3.75;;;;;;;17.34;60.34;98613.09;5032732;28;20038;-58
2022/06/21 03:14:13;;;;;;;6.07;3.20;;;;;;;17.38;63.10;98607.31;5033564;28;20025;-59
2022/06/21 03:16:40;;;;;;;5.85;3.72;;;;;;;17.30;63.80;98606.41;5031312;28;20031;-58
2022/06/21 03:19:19;;;;;;;7.93;3.40;;;;;;;17.31;63.65;98608.09;5031333;28;20033;-59
2022/06/21 03:21:45;;;;;;;6.75;3.47;;;;;;;17.27;64.55;98603.28;5032553;28;20512;-56
2022/06/21 03:24:17;;;;;;;3.75;3.05;;;;;;;17.29;64.86;98602.03;5032656;28;20111;-57
2022/06/21 03:26:48;;;;;;;6.93;3.67;;;;;;;17.23;65.18;98592.03;5032922;28;20461;-54
2022/06/21 03:29:14;;;;;;;7.15;3.88;;;;;;;17.15;66.06;98579.47;5032276;28;20108;-56
2022/06/21 03:31:44;;;;;;;5.50;3.20;;;;;;;17.40;65.70;98597.13;5032168;28;20121;-55
2022/06/21 03:34:15;;;;;;;5.65;3.50;;;;;;;17.44;62.52;98591.09;5032313;28;20033;-58
2022/06/21 03:36:41;;;;;;;6.30;3.40;;;;;;;17.48;62.17;98587.00;5031886;28;20133;-57
2022/06/21 03:41:42;;;;;;;5.05;3.50;;;;;;;17.62;58.42;98570.81;5030328;28;20426;-57
2022/06/21 03:42:14;;;;;;;6.88;3.42;;;;;;;17.62;57.27;98585.19;5031668;28;20033;-59
2022/06/21 03:44:45;;;;;;;7.45;3.47;;;;;;;17.68;56.91;98583.53;5032070;28;20041;-60
2022/06/21 03:47:18;;;;;;;5.97;3.70;;;;;;;17.77;57.05;98584.19;5032182;28;20145;-58
2022/06/21 03:49:55;;;;;;;6.28;3.67;;;;;;;17.88;57.36;98589.06;5031353;28;20393;-56
2022/06/21 03:52:42;;;;;;;6.35;3.92;;;;;;;17.97;57.54;98580.75;5031478;28;20314;-58
2022/06/21 03:55:23;;;;;;;6.20;3.17;;;;;;;17.94;54.08;98555.75;5031713;28;20076;-58
2022/06/21 03:58:09;;;;;;;5.15;2.50;;;;;;;18.15;53.17;98580.19;5031485;28;20394;-58
2022/06/21 04:00:47;;;;;;;5.90;2.78;;;;;;;18.23;52.93;98580.03;5011341;28;20092;-60
2022/06/21 04:03:48;;;;;;;4.60;2.40;;;;;;;18.40;53.17;98575.06;5011964;28;20125;-58
2022/06/21 04:06:36;;;;;;;4.80;2.42;;;;;;;18.56;52.24;98575.69;5012603;28;20378;-57
2022/06/21 04:09:15;;;;;;;4.55;2.45;;;;;;;18.42;50.85;98548.59;5020459;28;20029;-62
2022/06/21 04:11:59;;;;;;;3.83;2.30;;;;;;;18.98;51.30;98559.25;5031233;28;20099;-58
2022/06/21 04:14:39;;;;;;;6.05;2.53;;;;;;;19.32;50.50;98552.75;5031491;28;20449;-57
2022/06/21 04:17:17;;;;;;;3.20;2.42;;;;;;;19.58;49.17;98548.28;5031949;28;20512;-58
2022/06/21 04:19:58;;;;;;;4.35;2.45;;;;;;;19.89;48.07;98543.97;5029222;28;20038;-59
2022/06/21 04:22:33;;;;;;;5.68;2.03;;;;;;;19.88;47.66;98545.03;5030992;28;20142;-59
2022/06/21 04:25:33;;;;;;;8.00;2.75;;;;;;;19.91;48.06;98546.53;5031958;28;20033;-60
2022/06/21 04:28:05;;;;;;;5.72;2.97;;;;;;;19.69;48.43;98548.66;5011290;28;20068;-59
2022/06/21 04:30:46;;;;;;;4.35;2.38;;;;;;;19.62;48.36;98532.38;5031293;28;20068;-58
2022/06/21 04:33:46;;;;;;;5.22;2.45;;;;;;;19.79;48.79;98536.28;5031306;28;20029;-60
2022/06/21 04:36:19;;;;;;;6.03;2.70;;;;;;;19.73;47.53;98523.59;5012422;28;20485;-59
2022/06/21 04:38:57;;;;;;;4.53;2.53;;;;;;;19.85;47.92;98528.31;5030798;28;20098;-56
2022/06/21 04:41:43;;;;;;;4.70;2.75;;;;;;;19.80;48.67;98526.28;5031053;28;20040;-61
2022/06/21 04:44:20;;;;;;;5.63;3.00;;;;;;;19.68;48.59;98517.97;5031483;28;20072;-63
2022/06/21 04:46:46;;;;;;;5.15;3.17;;;;;;;19.63;48.67;98507.75;5030996;28;20068;-60
2022/06/21 04:49:21;;;;;;;4.35;3.08;;;;;;;19.83;48.28;98504.13;5030350;28;20029;-60
2022/06/21 04:51:50;;;;;;;5.07;3.38;;;;;;;19.73;47.99;98495.59;5031080;28;20041;-60
2022/06/21 04:54:28;;;;;;;5.72;3.55;;;;;;;19.82;48.76;98507.88;5031296;28;20044;-59
2022/06/21 04:57:21;;;;;;;4.22;3.33;;;;;;;19.62;48.85;98489.78;5030750;28;20025;-60
2022/06/21 05:00:19;;;;;;;8.88;4.10;;;;;;;19.86;48.92;98516.41;5030109;28;20083;-60
2022/06/21 05:02:54;;;;;;;7.95;3.75;;;;;;;20.15;48.47;98531.31;5030731;28;20033;-60
2022/06/21 05:05:33;;;;;;;6.75;4.10;;;;;;;20.51;47.28;98524.41;5030562;28;20036;-61
2022/06/21 05:08:05;;;;;;;10.82;4.55;;;;;;;21.08;46.28;98523.50;5029248;28;20034;-59
2022/06/21 05:10:34;;;;;;;7.88;5.30;;;;;;;21.86;44.09;98498.53;5030134;28;20052;-60
2022/06/21 05:13:17;;;;;;;7.57;4.88;;;;;;;22.53;43.25;98515.84;5030925;28;20083;-60
2022/06/21 05:15:43;;;;;;;6.80;4.35;;;;;;;23.47;41.53;98499.72;5029198;28;20368;-63
2022/06/21 05:18:17;;;;;;;10.20;4.68;;;;;;;25.52;38.02;98505.34;5030614;28;20041;-62
2022/06/21 05:20:53;;;;;;;8.60;4.88;;;;;;;26.49;36.55;98504.75;5010745;28;20351;-61
2022/06/21 05:23:21;;;;;;;7.10;4.72;;;;;;;26.51;35.26;98505.31;5009797;28;20041;-61
2022/06/21 05:25:48;;;;;;;7.82;4.53;;;;;;;26.74;34.04;98495.06;5015256;28;20084;-59
2022/06/21 05:28:33;;;;;;;9.13;4.47;;;;;;;27.45;34.22;98493.06;5029989;28;20120;-58
2022/06/21 05:31:03;;;;;;;6.45;4.05;;;;;;;27.32;33.90;98508.13;5029761;28;20037;-60
2022/06/21 05:33:36;;;;;;;10.63;4.72;;;;;;;26.67;34.68;98491.72;5030184;28;20136;-63
2022/06/21 05:36:06;;;;;;;7.32;4.22;;;;;;;26.42;35.03;98495.13;5029819;28;20030;-61
2022/06/21 05:38:35;;;;;;;8.48;4.20;;;;;;;26.74;34.46;98511.53;5030062;28;20095;-60
2022/06/21 05:41:09;;;;;;;6.13;3.70;;;;;;;27.49;33.39;98518.06;5030546;28;20033;-60
2022/06/21 05:43:46;;;;;;;6.85;3.50;;;;;;;28.06;32.49;98507.31;5030232;28;20033;-59
2022/06/21 05:46:22;;;;;;;7.15;3.10;;;;;;;28.58;31.34;98502.72;5029529;28;20056;-66
2022/06/21 05:48:50;;;;;;;4.25;2.60;;;;;;;28.69;29.41;98503.50;5030279;28;20053;-60
2022/06/21 05:51:21;;;;;;;4.55;3.08;;;;;;;28.87;29.23;98499.41;5028441;28;20188;-61
2022/06/21 05:53:50;;;;;;;5.55;3.13;;;;;;;29.14;28.45;98491.91;5029130;28;20033;-59
2022/06/21 05:56:19;;;;;;;5.40;2.80;;;;;;;29.32;28.90;98502.34;5030126;28;20057;-61
2022/06/21 05:58:50;;;;;;;5.65;2.78;;;;;;;29.05;29.49;98491.66;5029799;28;20107;-59
2022/06/21 06:01:42;;;;;;;4.82;2.85;;;;;;;29.02;29.96;98500.47;5030079;28;20047;-61
2022/06/21 06:04:08;;;;;;;5.38;3.08;;;;;;;28.40;29.70;98484.81;5027911;28;20132;-60
2022/06/21 06:06:36;;;;;;;7.93;3.40;;;;;;;28.01;30.33;98488.03;5028746;28;20125;-60
2022/06/21 06:09:08;;;;;;;6.97;3.65;;;;;;;27.64;31.47;98487.13;5029916;28;20040;-60
2022/06/21 06:12:00;;;;;;;6.72;3.35;;;;;;;27.26;32.86;98481.72;5030014;28;20109;-60
2022/06/21 06:14:54;;;;;;;8.77;3.65;;;;;;;26.93;33.45;98486.44;5029750;28;20065;-60
2022/06/21 06:17:47;;;;;;;5.80;3.50;;;;;;;26.47;34.10;98490.47;5026621;28;20041;-60
2022/06/21 06:20:36;;;;;;;6.95;3.92;;;;;;;25.88;35.28;98494.00;5034314;28;20535;-60
2022/06/21 06:23:25;;;;;;;9.63;3.58;;;;;;;25.31;36.28;98510.53;5013691;28;20033;-60
2022/06/21 06:26:02;;;;;;;6.05;3.50;;;;;;;24.47;37.60;98498.56;5013825;28;20503;-60
2022/06/21 06:28:51;;;;;;;7.63;4.05;;;;;;;24.09;38.82;98503.66;5013760;28;20377;-69
2022/06/21 06:31:26;;;;;;;10.15;4.07;;;;;;;23.48;40.18;98506.84;5013909;28;20065;-65
2022/06/21 06:33:59;;;;;;;6.60;4.23;;;;;;;23.11;40.51;98509.81;5013739;28;20040;-63
2022/06/21 06:36:31;;;;;;;5.75;3.95;;;;;;;22.70;41.48;98515.16;5013803;28;20255;-67
2022/06/21 06:38:58;;;;;;;9.48;4.50;;;;;;;22.20;42.74;98515.28;5019169;28;20484;-66
2022/06/21 06:41:31;;;;;;;6.40;4.18;;;;;;;21.99;43.65;98516.59;5033505;28;20543;-66
2022/06/21 06:44:03;;;;;;;8.30;4.30;;;;;;;21.77;43.87;98508.09;5032956;28;20071;-67
2022/06/21 06:46:35;;;;;;;7.30;4.10;;;;;;;21.50;44.61;98511.94;5033436;28;20025;-68
2022/06/21 06:49:33;;;;;;;9.25;4.80;;;;;;;21.37;45.62;98523.81;5033101;28;20378;-68
2022/06/21 06:52:11;;;;;;;9.93;5.25;;;;;;;20.99;46.41;98530.31;5032600;28;20050;-66
2022/06/21 06:54:50;;;;;;;7.18;4.70;;;;;;;20.70;47.33;98519.00;5032641;28;20041;-66
2022/06/21 06:57:40;;;;;;;6.47;4.53;;;;;;;20.43;48.14;98519.22;5033423;28;20034;-66
2022/06/21 07:00:36;;;;;;;9.02;4.78;;;;;;;20.36;47.58;98527.41;5024745;28;20224;-68
2022/06/21 07:03:10;;;;;;;7.55;4.82;;;;;;;20.07;48.88;98532.41;5028788;28;20033;-71
2022/06/21 07:05:43;;;;;;;9.73;4.73;;;;;;;19.88;49.72;98531.44;5031225;28;20212;-72
2022/06/21 07:08:20;;;;;;;8.15;4.70;;;;;;;19.75;50.38;98517.91;5031542;28;20029;-72
2022/06/21 07:10:49;;;;;;;9.35;5.20;;;;;;;19.60;50.77;98518.19;5023791;28;20127;-67
2022/06/21 07:13:16;;;;;;;12.23;5.10;;;;;;;19.46;51.18;98520.97;5026706;28;20032;-71
2022/06/21 07:15:45;;;;;;;6.90;4.75;;;;;;;19.43;51.37;98512.41;5026718;28;20083;-71
2022/06/21 07:18:27;;;;;;;7.18;4.38;;;;;;;19.47;50.86;98505.50;5030634;28;20033;-71
2022/06/21 07:20:54;;;;;;;7.47;4.95;;;;;;;19.05;51.03;98468.72;5033025;28;20080;-72
2022/06/21 07:23:21;;;;;;;8.73;4.28;;;;;;;19.12;51.63;98494.97;5030830;28;20503;-70
2022/06/21 07:25:52;;;;;;;8.18;4.28;;;;;;;19.13;52.27;98502.06;5032951;28;20033;-68
2022/06/21 07:28:36;;;;;;;7.50;4.80;;;;;;;19.08;52.31;98490.00;5033508;28;20029;-69
2022/06/21 07:31:25;;;;;;;5.85;4.72;;;;;;;18.96;51.99;98467.22;5039212;28;20055;-69
2022/06/21 07:34:14;;;;;;;6.05;4.68;;;;;;;19.18;51.81;98489.56;5031510;28;20505;-67
2022/06/21 07:36:46;;;;;;;8.30;4.70;;;;;;;19.12;52.42;98497.69;5032406;28;20030;-64
2022/06/21 07:39:28;;;;;;;10.50;4.90;;;;;;;19.14;52.87;98498.31;5032539;28;20037;-65
2022/06/21 07:42:07;;;;;;;9.25;5.03;;;;;;;19.16;52.86;98494.31;5032028;28;20033;-64
2022/06/21 07:44:48;;;;;;;7.60;4.60;;;;;;;19.13;53.11;98489.31;5031853;28;20049;-66
2022/06/21 07:47:57;;;;;;;7.72;4.75;;;;;;;19.18;52.65;98488.69;5047241;28;20029;-68
2022/06/21 07:50:31;;;;;;;11.30;5.80;;;;;;;19.17;53.21;98487.88;5011524;28;20529;-70
2022/06/21 07:53:07;;;;;;;7.45;5.32;;;;;;;19.11;53.26;98479.75;5031789;28;20083;-73
2022/06/21 07:56:02;;;;;;;10.90;5.10;;;;;;;19.19;53.30;98483.06;5030860;28;20037;-72
2022/06/21 07:58:37;;;;;;;13.48;4.45;;;;;;;19.14;53.23;98480.16;5031190;28;20107;-72
2022/06/21 08:07:31;;;;;;;10.80;5.97;;;;;;;19.02;52.96;98488.09;5006419;28;20041;-68
2022/06/21 08:10:02;;;;;;;7.82;5.50;;;;;;;18.99;53.92;98485.81;5015345;28;20051;-68
2022/06/21 08:12:29;;;;;;;12.52;5.82;;;;;;;19.00;55.23;98498.31;5030578;28;20131;-69
2022/06/21 08:14:55;;;;;;;12.43;6.22;;;;;;;18.98;54.87;98496.88;5030218;28;20358;-71
2022/06/21 08:17:34;;;;;;;9.73;6.03;;;;;;;18.95;55.71;98487.25;5030910;28;20086;-71
2022/06/21 08:20:06;;;;;;;9.35;5.82;;;;;;;18.96;56.61;98488.94;5031191;28;20037;-70
2022/06/21 08:22:50;;;;;;;12.57;6.57;;;;;;;18.86;56.67;98464.13;5029736;28;20053;-69
2022/06/21 08:25:37;;;;;;;11.57;6.63;;;;;;;19.02;56.61;98495.41;5031885;28;20120;-72
2022/06/21 08:28:10;;;;;;;12.60;6.40;;;;;;;18.85;59.50;98489.59;5030311;28;20022;-72
2022/06/21 08:30:56;;;;;;;9.32;6.55;;;;;;;18.83;58.77;98473.50;5030606;28;20472;-71
2022/06/21 08:33:56;;;;;;;11.38;6.70;;;;;;;18.84;57.35;98477.88;5031076;28;20044;-67
2022/06/21 08:36:32;;;;;;;10.05;6.55;;;;;;;18.77;56.87;98494.16;5029790;28;20037;-68
2022/06/21 08:39:16;;;;;;;11.30;6.82;;;;;;;18.86;59.71;98492.06;5030243;28;20393;-71
2022/06/21 08:42:08;;;;;;;10.57;6.50;;;;;;;18.83;59.06;98491.66;4995468;28;20045;-70
2022/06/21 08:48:10;;;;;;;11.13;6.50;;;;;;;18.93;59.55;98492.91;5025198;28;20105;-68
2022/06/21 08:51:13;;;;;;;10.73;6.53;;;;;;;19.00;59.34;98487.47;5030650;28;20496;-68
2022/06/21 08:53:41;;;;;;;13.27;6.65;;;;;;;18.93;59.34;98489.34;5031063;28;20136;-73
2022/06/21 08:56:17;;;;;;;11.65;6.55;;;;;;;19.02;59.34;98495.41;5029464;28;20092;-74
2022/06/21 08:59:07;;;;;;;10.30;6.50;;;;;;;18.99;59.27;98490.41;5030405;28;20137;-70
2022/06/21 09:01:41;;;;;;;9.55;6.20;;;;;;;18.96;58.98;98480.78;5060752;28;20060;-70
2022/06/21 09:04:28;;;;;;;14.18;6.70;;;;;;;19.09;59.50;98482.66;5031000;28;20056;-72
2022/06/21 09:07:28;;;;;;;11.10;6.13;;;;;;;19.13;59.89;98483.91;5029056;28;20049;-69
2022/06/21 09:10:18;;;;;;;10.60;6.15;;;;;;;19.12;59.95;98478.72;5029176;28;20430;-74
2022/06/21 09:13:20;;;;;;;11.07;6.32;;;;;;;19.21;59.55;98491.84;5029714;28;20034;-74
2022/06/21 09:16:17;;;;;;;12.68;6.85;;;;;;;19.15;58.81;98472.84;5029324;28;20487;-71
2022/06/21 09:18:48;;;;;;;11.30;6.60;;;;;;;19.15;58.88;98489.94;5010477;28;20052;-70
2022/06/21 09:21:25;;;;;;;9.23;6.13;;;;;;;19.10;57.00;98476.19;5010364;28;20165;-72
2022/06/21 09:23:58;;;;;;;10.77;6.38;;;;;;;19.20;56.94;98492.03;5016150;28;20470;-72
2022/06/21 09:26:42;;;;;;;12.23;7.32;;;;;;;19.33;58.74;98496.59;5026962;28;20115;-70
2022/06/21 09:29:31;;;;;;;13.43;7.15;;;;;;;19.25;57.65;98488.69;5028682;28;20076;-70
2022/06/21 09:31:59;;;;;;;11.50;6.97;;;;;;;19.35;57.79;98499.91;5026492;28;20049;-69
2022/06/21 09:34:48;;;;;;;9.52;6.75;;;;;;;19.47;59.62;98494.66;5029258;28;20486;-69
2022/06/21 09:37:48;;;;;;;10.52;7.18;;;;;;;19.54;58.54;98494.63;5025168;28;20057;-71
2022/06/21 09:40:17;;;;;;;13.48;7.22;;;;;;;19.41;57.96;98487.38;5028713;28;20029;-73
2022/06/21 09:42:55;;;;;;;12.18;7.03;;;;;;;19.40;58.27;98475.66;5011651;28;20036;-70
2022/06/21 09:45:42;;;;;;;13.88;7.32;;;;;;;19.26;58.16;98445.03;5030539;28;20033;-68
2022/06/21 09:48:50;;;;;;;12.80;6.70;;;;;;;19.52;57.43;98478.53;5018003;28;20083;-75
2022/06/21 09:51:24;;;;;;;9.15;6.72;;;;;;;19.51;55.90;98472.31;4997871;28;20061;-72
2022/06/21 09:54:05;;;;;;;14.65;7.03;;;;;;;19.72;55.43;98475.75;5043616;28;20533;-70
2022/06/21 09:56:43;;;;;;;11.05;7.53;;;;;;;19.83;54.28;98474.25;5053986;28;20470;-67
2022/06/21 09:59:34;;;;;;;9.68;6.78;;;;;;;20.22;54.13;98476.94;5052416;28;20148;-69
2022/06/21 10:02:10;;;;;;;12.80;8.02;;;;;;;20.39;54.00;98479.94;5023356;28;20091;-67
2022/06/21 10:04:54;;;;;;;10.55;7.32;;;;;;;20.62;53.56;98487.50;5032643;28;20036;-70
2022/06/21 10:07:26;;;;;;;12.50;7.65;;;;;;;20.71;52.92;98485.31;5030208;28;20087;-77
2022/06/21 10:09:57;;;;;;;11.00;7.18;;;;;;;20.87;53.69;98461.34;5029095;28;20037;-77
2022/06/21 10:12:43;;;;;;;11.95;5.85;;;;;;;21.23;50.81;98474.16;5033777;28;20040;-77
2022/06/21 10:15:20;;;;;;;7.63;5.57;;;;;;;21.58;49.57;98475.41;5031583;28;20025;-69
2022/06/21 10:17:52;;;;;;;10.10;5.70;;;;;;;21.69;48.63;98479.28;5031515;28;20041;-75
2022/06/21 10:20:40;;;;;;;11.15;6.20;;;;;;;21.84;49.53;98487.06;5031646;28;20155;-74
2022/06/21 10:23:25;;;;;;;9.88;6.00;;;;;;;21.84;49.38;98476.16;5030950;28;20037;-72
2022/06/21 10:26:05;;;;;;;6.75;5.38;;;;;;;21.86;48.53;98481.38;5032928;28;20128;-72
2022/06/21 10:28:50;;;;;;;7.90;5.70;;;;;;;21.70;48.22;98480.09;5033714;28;20223;-73
2022/06/21 10:31:22;;;;;;;8.48;5.20;;;;;;;21.37;47.85;98476.75;5031650;28;20030;-73
2022/06/21 10:33:54;;;;;;;5.07;3.58;;;;;;;21.37;47.35;98472.09;5032604;28;20171;-71
2022/06/21 10:36:50;;;;;;;4.85;3.55;;;;;;;21.40;46.27;98472.72;5014250;28;20104;-72
2022/06/21 10:39:19;;;;;;;;;;;;;;;21.71;46.94;98473.63;5019105;28;20082;-73
2022/06/21 10:44:56;;;;;;;5.07;4.50;;;;;;;21.37;47.23;98479.47;5033001;28;20112;-71
2022/06/21 10:47:52;;;;;;;6.75;4.13;;;;;;;21.46;46.22;98478.06;5032609;28;20037;-71
2022/06/21 10:50:30;;;;;;;;;;;;;;;21.85;46.03;98469.63;5033194;28;20018;-70
2022/06/21 10:53:18;;;;;;;6.85;4.80;;;;;;;21.68;45.89;98465.88;5031729;28;19975;-69
2022/06/21 10:57:09;;;;;;;7.72;6.03;;;;;;;21.58;45.99;98450.91;5032177;28;20041;-72
2022/06/21 10:58:55;;;;;;;8.00;5.20;;;;;;;21.78;47.68;98455.28;5025578;28;20103;-68
2022/06/21 11:01:37;;;;;;;7.78;5.72;;;;;;;21.83;48.05;98452.69;5030346;28;20049;-70
2022/06/21 11:04:22;;;;;;;9.00;5.32;;;;;;;21.91;48.11;98449.63;5037324;28;20049;-72
2022/06/21 11:07:06;;;;;;;9.80;6.30;;;;;;;21.80;47.03;98445.00;5035450;28;20033;-72
2022/06/21 11:10:15;;;;;;;9.68;6.25;;;;;;;21.72;47.43;98442.59;5033800;28;20060;-71
2022/06/21 11:12:53;;;;;;;9.18;6.00;;;;;;;21.52;47.81;98441.75;5032405;28;20068;-74
2022/06/21 11:15:49;;;;;;;9.13;6.68;;;;;;;21.54;48.62;98444.25;5033317;28;20034;-70
2022/06/21 11:18:15;;;;;;;11.30;6.50;;;;;;;21.32;47.10;98441.16;5030404;28;20124;-72
2022/06/21 11:21:10;;;;;;;10.20;6.97;;;;;;;21.40;47.14;98446.31;5032867;28;20120;-72
2022/06/21 11:23:45;;;;;;;8.50;6.88;;;;;;;21.25;47.29;98446.72;5032670;28;20029;-73
2022/06/21 11:26:21;;;;;;;9.48;7.45;;;;;;;21.32;47.69;98455.63;5033061;28;20120;-70
2022/06/21 11:29:05;;;;;;;11.57;7.80;;;;;;;21.35;47.85;98448.91;5032130;28;20026;-70
2022/06/21 11:31:49;;;;;;;10.75;7.85;;;;;;;21.28;48.30;98451.72;5032207;28;20040;-71
2022/06/21 11:34:23;;;;;;;10.00;7.00;;;;;;;21.15;47.16;98446.41;5031735;28;20164;-69
2022/06/21 11:37:26;;;;;;;11.23;7.32;;;;;;;21.04;47.39;98458.88;5030303;28;20033;-72
2022/06/21 11:40:19;;;;;;;8.23;6.40;;;;;;;20.84;47.43;98465.34;5018835;28;20411;-70
2022/06/21 11:42:57;;;;;;;8.50;6.03;;;;;;;20.90;47.34;98455.47;5031363;28;20033;-70
2022/06/21 11:45:45;;;;;;;8.30;5.43;;;;;;;21.07;47.15;98467.44;5031857;28;20052;-71
2022/06/21 11:48:23;;;;;;;7.40;4.90;;;;;;;21.20;46.10;98465.59;5031858;28;20062;-70
2022/06/21 11:50:49;;;;;;;6.70;4.93;;;;;;;21.16;44.53;98448.06;5031918;28;20104;-69
2022/06/21 11:53:17;;;;;;;7.78;5.07;;;;;;;21.20;44.53;98454.72;5031586;28;20457;-70
2022/06/21 11:56:18;;;;;;;8.23;4.82;;;;;;;21.40;44.70;98450.94;5032088;28;20026;-70
2022/06/21 11:59:08;;;;;;;7.45;4.93;;;;;;;21.27;44.13;98444.59;5030502;28;20378;-69
2022/06/21 12:01:42;;;;;;;7.93;5.10;;;;;;;21.25;44.67;98451.31;5030263;28;20099;-69
2022/06/21 12:04:29;;;;;;;8.55;4.93;;;;;;;21.20;45.34;98449.28;5030542;28;20032;-70
2022/06/21 12:06:57;;;;;;;7.88;5.38;;;;;;;21.07;47.44;98444.81;5029567;28;20032;-70
2022/06/21 12:09:39;;;;;;;7.85;5.32;;;;;;;21.08;47.37;98441.88;5030317;28;20036;-69
2022/06/21 12:12:19;;;;;;;7.18;5.78;;;;;;;20.94;48.83;98437.63;5027185;28;20366;-70
2022/06/21 12:15:06;;;;;;;7.95;6.07;;;;;;;20.98;48.80;98433.44;5029369;28;20033;-70
2022/06/21 12:17:49;;;;;;;7.03;5.05;;;;;;;20.88;47.81;98427.66;5023538;28;20124;-70
2022/06/21 12:20:34;;;;;;;5.80;3.83;;;;;;;20.79;45.97;98433.41;5030922;28;20041;-69
2022/06/21 12:23:30;;;;;;;5.37;3.77;;;;;;;20.79;44.21;98430.69;5024765;28;20031;-71
2022/06/21 12:25:57;;;;;;;5.50;4.03;;;;;;;20.70;45.14;98414.84;5031350;28;20444;-71
2022/06/21 12:28:30;;;;;;;7.88;3.92;;;;;;;20.77;44.24;98424.63;5031532;28;20037;-70
2022/06/21 12:30:56;;;;;;;6.65;3.58;;;;;;;20.58;44.56;98415.56;5030539;28;20037;-69
2022/06/21 12:33:25;;;;;;;6.35;4.15;;;;;;;20.58;44.85;98414.75;5031101;28;20067;-70
2022/06/21 12:35:56;;;;;;;8.93;3.95;;;;;;;20.74;46.11;98422.34;5030441;28;20036;-69